Millenium Air

Millenium Air Since 1998



 METAR AND TAF INFORMATION
METAR FOR LIEA
ADDS - METARS form results

(0115 UTC 27 January 2021)
Data provider http://aviationweather.gov/metar/data/
 
METAR text: LIEA 270050Z AUTO 30005KT 260V330 9999 BKN099/// 11/03 Q1020
Conditions at: LIEA (ALGHERO , IT) observed 0050 UTC 27 January 2021
Temperature: 11.0°C (52°F)
Dewpoint: 3.0°C (37°F) [RH = 58%]
Pressure (altimeter): 30.12 inches Hg (1020.0 mb)
Winds: from the WNW (300 degrees) at 6 MPH (5 knots; 2.6 m/s)
Visibility: 6 or more miles (10+ km)
Ceiling: 9900 feet AGL
Clouds: broken clouds at 9900 feet AGL
Weather: no significant weather observed at this time

METAR text: LIEA 270020Z AUTO 30006KT 270V340 9999 BKN100/// 11/02 Q1020
Conditions at: LIEA (ALGHERO , IT) observed 0020 UTC 27 January 2021
Temperature: 11.0°C (52°F)
Dewpoint: 2.0°C (36°F) [RH = 54%]
Pressure (altimeter): 30.12 inches Hg (1020.0 mb)
Winds: from the WNW (300 degrees) at 7 MPH (6 knots; 3.1 m/s)
Visibility: 6 or more miles (10+ km)
Ceiling: 10000 feet AGL
Clouds: broken clouds at 10000 feet AGL
Weather: no significant weather observed at this time

Forecast for: LIEA (ALGHERO , IT)
Text: TAF LIEA 262300Z 2700/2724 30010KT 9999 FEW030
Forecast period: 0000 UTC 27 January 2021 to 0000 UTC 28 January 2021
Forecast type: FROM: standard forecast or significant change
Winds: from the WNW (300 degrees) at 12 MPH (10 knots; 5.1 m/s)
Visibility: 6 or more miles (10+ km)
Ceiling: at least 12,000 feet AGL
Clouds: few clouds at 3000 feet AGL
Weather: no significant weather forecast for this period
Text: TEMPO 2708/2715 RA
Forecast period: 0800 to 1500 UTC 27 January 2021
Forecast type: TEMPORARY: The following changes expected for less than half the time period
Visibility: missing
Ceiling: unknown
Clouds: missing
Weather: RA  (moderate rain)

 AIRPORT MAP

 RUNWAY INFORMATION
Runway 02 Runway length 9843 ft Runway width 148 ft
Runway elevation 69 ft Runway displaced threshold 0 ft Runway heading 25
Runway 20 Runway length 9843 ft Runway width 148 ft
Runway elevation 87 ft Runway displaced threshold 0 ft Runway heading 205

 AIRPORT FREQUENCIES
Type APP Name APP Frequency 128.55 MHZ
Type ATIS Name ATIS Frequency 125.025 MHZ
Type TWR Name TWR Frequency 118.85 MHZ

 AIRPORT NEAR NAVIGATION AIDS
Type TACAN Name Alghero Frequency 109300 KHZ
Type VORTAC Name Alghero Frequency 113800 KHZ
Type NDB Name Alghero Frequency 382 KHZ